sensor_id;sensor_type;location;lat;lon;timestamp;pressure;altitude;pressure_sealevel;temperature;humidity
20037;BME280;10179;42.640;23.312;2023-08-06T00:01:14;92624.41;;;22.10;67.74
20037;BME280;10179;42.640;23.312;2023-08-06T00:03:40;92655.94;;;22.04;68.16
20037;BME280;10179;42.640;23.312;2023-08-06T00:06:05;92648.41;;;21.89;68.81
20037;BME280;10179;42.640;23.312;2023-08-06T00:08:31;92677.00;;;21.97;68.71
20037;BME280;10179;42.640;23.312;2023-08-06T00:10:57;92660.66;;;21.90;69.46
20037;BME280;10179;42.640;23.312;2023-08-06T00:13:22;92620.50;;;21.60;69.62
20037;BME280;10179;42.640;23.312;2023-08-06T00:15:48;92524.44;;;21.08;69.85
20037;BME280;10179;42.640;23.312;2023-08-06T00:18:13;92608.25;;;21.59;69.80
20037;BME280;10179;42.640;23.312;2023-08-06T00:20:39;92637.59;;;21.77;69.67
20037;BME280;10179;42.640;23.312;2023-08-06T00:23:06;92600.91;;;21.21;69.81
20037;BME280;10179;42.640;23.312;2023-08-06T00:25:31;92649.88;;;21.69;69.74
20037;BME280;10179;42.640;23.312;2023-08-06T00:27:56;92615.03;;;21.48;70.25
20037;BME280;10179;42.640;23.312;2023-08-06T00:30:22;92647.53;;;21.67;69.88
20037;BME280;10179;42.640;23.312;2023-08-06T00:32:47;92615.50;;;21.50;70.01
20037;BME280;10179;42.640;23.312;2023-08-06T00:35:12;92603.88;;;21.29;69.96
20037;BME280;10179;42.640;23.312;2023-08-06T00:37:39;92647.56;;;21.50;70.15
20037;BME280;10179;42.640;23.312;2023-08-06T00:40:06;92633.75;;;21.48;70.46
20037;BME280;10179;42.640;23.312;2023-08-06T00:42:31;92625.41;;;21.41;70.41
20037;BME280;10179;42.640;23.312;2023-08-06T00:44:57;92544.88;;;20.95;70.23
20037;BME280;10179;42.640;23.312;2023-08-06T00:47:23;92540.78;;;20.98;70.36
20037;BME280;10179;42.640;23.312;2023-08-06T00:49:48;92456.84;;;20.43;70.48
20037;BME280;10179;42.640;23.312;2023-08-06T00:52:14;92623.38;;;21.55;70.63
20037;BME280;10179;42.640;23.312;2023-08-06T00:54:40;92619.25;;;21.58;70.56
20037;BME280;10179;42.640;23.312;2023-08-06T00:57:07;92570.28;;;21.28;70.26
20037;BME280;10179;42.640;23.312;2023-08-06T00:59:33;92613.59;;;21.59;70.07
20037;BME280;10179;42.640;23.312;2023-08-06T01:01:59;92607.78;;;21.57;70.03
20037;BME280;10179;42.640;23.312;2023-08-06T01:04:25;92494.34;;;20.82;69.88
20037;BME280;10179;42.640;23.312;2023-08-06T01:07:05;92601.31;;;21.58;70.61
20037;BME280;10179;42.640;23.312;2023-08-06T01:09:52;92584.06;;;21.56;70.60
20037;BME280;10179;42.640;23.312;2023-08-06T01:15:12;92591.63;;;21.45;70.12
20037;BME280;10179;42.640;23.312;2023-08-06T01:17:40;92597.13;;;21.49;70.37
20037;BME280;10179;42.640;23.312;2023-08-06T01:20:06;92572.94;;;21.45;70.68
20037;BME280;10179;42.640;23.312;2023-08-06T01:22:31;92583.09;;;21.60;70.91
20037;BME280;10179;42.640;23.312;2023-08-06T01:24:57;92580.38;;;21.69;71.38
20037;BME280;10179;42.640;23.312;2023-08-06T01:30:12;92573.28;;;21.82;71.37
20037;BME280;10179;42.640;23.312;2023-08-06T01:32:42;92565.72;;;21.84;71.70
20037;BME280;10179;42.640;23.312;2023-08-06T01:35:10;92570.88;;;21.89;71.72
20037;BME280;10179;42.640;23.312;2023-08-06T01:37:37;92560.03;;;21.94;71.33
20037;BME280;10179;42.640;23.312;2023-08-06T01:40:13;92556.38;;;21.99;71.54
20037;BME280;10179;42.640;23.312;2023-08-06T01:42:39;92555.59;;;21.98;70.88
20037;BME280;10179;42.640;23.312;2023-08-06T01:45:06;92531.13;;;21.79;70.55
20037;BME280;10179;42.640;23.312;2023-08-06T01:47:31;92485.19;;;21.56;70.35
20037;BME280;10179;42.640;23.312;2023-08-06T01:49:57;92566.56;;;22.05;70.76
20037;BME280;10179;42.640;23.312;2023-08-06T01:52:22;92541.31;;;21.94;70.42
20037;BME280;10179;42.640;23.312;2023-08-06T01:54:47;92468.91;;;21.31;70.99
20037;BME280;10179;42.640;23.312;2023-08-06T01:57:13;92445.66;;;21.32;70.88
20037;BME280;10179;42.640;23.312;2023-08-06T01:59:38;92566.38;;;22.10;71.05
20037;BME280;10179;42.640;23.312;2023-08-06T02:02:04;92555.66;;;22.10;70.96
20037;BME280;10179;42.640;23.312;2023-08-06T02:04:29;92553.00;;;22.10;70.79
20037;BME280;10179;42.640;23.312;2023-08-06T02:06:55;92558.34;;;22.10;70.78
20037;BME280;10179;42.640;23.312;2023-08-06T02:09:20;92553.00;;;22.10;70.73
20037;BME280;10179;42.640;23.312;2023-08-06T02:11:45;92542.03;;;22.03;70.91
20037;BME280;10179;42.640;23.312;2023-08-06T02:14:11;92545.81;;;22.02;70.68
20037;BME280;10179;42.640;23.312;2023-08-06T02:16:37;92556.13;;;22.12;70.77
20037;BME280;10179;42.640;23.312;2023-08-06T02:19:02;92571.56;;;22.15;70.81
20037;BME280;10179;42.640;23.312;2023-08-06T02:21:28;92466.22;;;21.40;70.44
20037;BME280;10179;42.640;23.312;2023-08-06T02:23:53;92547.09;;;21.96;70.30
20037;BME280;10179;42.640;23.312;2023-08-06T02:26:18;92522.72;;;21.98;70.58
20037;BME280;10179;42.640;23.312;2023-08-06T02:28:44;92564.03;;;22.09;70.23
20037;BME280;10179;42.640;23.312;2023-08-06T02:31:09;92564.06;;;22.00;70.56
20037;BME280;10179;42.640;23.312;2023-08-06T02:33:35;92551.66;;;21.96;70.78
20037;BME280;10179;42.640;23.312;2023-08-06T02:36:01;92480.38;;;21.32;70.43
20037;BME280;10179;42.640;23.312;2023-08-06T02:38:27;92571.72;;;21.81;71.06
20037;BME280;10179;42.640;23.312;2023-08-06T02:40:52;92499.91;;;21.24;71.52
20037;BME280;10179;42.640;23.312;2023-08-06T02:43:17;92610.97;;;21.89;71.55
20037;BME280;10179;42.640;23.312;2023-08-06T02:45:43;92595.88;;;21.93;72.03
20037;BME280;10179;42.640;23.312;2023-08-06T02:48:08;92533.72;;;21.66;71.05
20037;BME280;10179;42.640;23.312;2023-08-06T02:50:40;92544.34;;;21.75;70.63
20037;BME280;10179;42.640;23.312;2023-08-06T02:53:09;92562.94;;;21.72;70.57
20037;BME280;10179;42.640;23.312;2023-08-06T02:55:34;92560.75;;;21.65;70.99
20037;BME280;10179;42.640;23.312;2023-08-06T02:58:01;92418.84;;;20.72;71.20
20037;BME280;10179;42.640;23.312;2023-08-06T03:00:26;92551.38;;;21.50;71.88
20037;BME280;10179;42.640;23.312;2023-08-06T03:02:52;92523.59;;;21.34;71.91
20037;BME280;10179;42.640;23.312;2023-08-06T03:05:18;92124.53;;;18.93;71.73
20037;BME280;10179;42.640;23.312;2023-08-06T03:07:43;92521.81;;;21.55;71.91
20037;BME280;10179;42.640;23.312;2023-08-06T03:10:09;92552.59;;;21.61;72.33
20037;BME280;10179;42.640;23.312;2023-08-06T03:12:34;92542.81;;;21.65;72.11
20037;BME280;10179;42.640;23.312;2023-08-06T03:15:00;92449.38;;;21.01;72.61
20037;BME280;10179;42.640;23.312;2023-08-06T03:17:25;92529.44;;;21.74;72.70
20037;BME280;10179;42.640;23.312;2023-08-06T03:19:50;92496.72;;;21.77;72.54
20037;BME280;10179;42.640;23.312;2023-08-06T03:22:16;92499.97;;;21.83;72.61
20037;BME280;10179;42.640;23.312;2023-08-06T03:24:41;92537.69;;;21.90;72.53
20037;BME280;10179;42.640;23.312;2023-08-06T03:27:06;92520.13;;;21.80;72.44
20037;BME280;10179;42.640;23.312;2023-08-06T03:29:32;92534.00;;;21.74;72.25
20037;BME280;10179;42.640;23.312;2023-08-06T03:31:57;92544.34;;;21.84;72.06
20037;BME280;10179;42.640;23.312;2023-08-06T03:34:22;92512.50;;;21.61;72.30
20037;BME280;10179;42.640;23.312;2023-08-06T03:36:48;92541.19;;;21.82;72.80
20037;BME280;10179;42.640;23.312;2023-08-06T03:39:13;92528.03;;;21.77;72.04
20037;BME280;10179;42.640;23.312;2023-08-06T03:41:39;92545.97;;;21.67;71.65
20037;BME280;10179;42.640;23.312;2023-08-06T03:44:05;92543.09;;;21.73;72.30
20037;BME280;10179;42.640;23.312;2023-08-06T03:46:30;92226.91;;;19.73;72.15
20037;BME280;10179;42.640;23.312;2023-08-06T03:49:00;92562.34;;;21.96;72.75
20037;BME280;10179;42.640;23.312;2023-08-06T03:51:25;92536.47;;;21.79;72.24
20037;BME280;10179;42.640;23.312;2023-08-06T03:53:51;92469.53;;;21.37;72.32
20037;BME280;10179;42.640;23.312;2023-08-06T03:56:16;92577.53;;;22.12;72.64
20037;BME280;10179;42.640;23.312;2023-08-06T03:58:42;92583.84;;;22.17;72.41
20037;BME280;10179;42.640;23.312;2023-08-06T04:01:07;92600.50;;;22.13;71.81
20037;BME280;10179;42.640;23.312;2023-08-06T04:03:32;92568.34;;;21.92;71.46
20037;BME280;10179;42.640;23.312;2023-08-06T04:05:58;92605.34;;;21.82;70.79
20037;BME280;10179;42.640;23.312;2023-08-06T04:08:23;92595.06;;;22.01;71.48
20037;BME280;10179;42.640;23.312;2023-08-06T04:10:50;92598.50;;;22.02;71.93
20037;BME280;10179;42.640;23.312;2023-08-06T04:13:16;92503.91;;;21.47;71.77
20037;BME280;10179;42.640;23.312;2023-08-06T04:15:41;92535.28;;;21.67;71.18
20037;BME280;10179;42.640;23.312;2023-08-06T04:18:07;92591.44;;;21.97;71.77
20037;BME280;10179;42.640;23.312;2023-08-06T04:20:32;92602.94;;;21.98;71.94
20037;BME280;10179;42.640;23.312;2023-08-06T04:22:57;92589.25;;;21.99;72.40
20037;BME280;10179;42.640;23.312;2023-08-06T04:25:23;92587.97;;;22.05;72.92
20037;BME280;10179;42.640;23.312;2023-08-06T04:27:48;92588.25;;;22.12;72.86
20037;BME280;10179;42.640;23.312;2023-08-06T04:30:14;92583.63;;;22.22;73.00
20037;BME280;10179;42.640;23.312;2023-08-06T04:32:39;92562.28;;;22.13;73.05
20037;BME280;10179;42.640;23.312;2023-08-06T04:35:05;92462.56;;;21.53;72.68
20037;BME280;10179;42.640;23.312;2023-08-06T04:37:31;92564.53;;;22.32;72.88
20037;BME280;10179;42.640;23.312;2023-08-06T04:39:56;92533.63;;;22.22;72.64
20037;BME280;10179;42.640;23.312;2023-08-06T04:42:22;92524.34;;;22.20;72.66
20037;BME280;10179;42.640;23.312;2023-08-06T04:44:47;92293.56;;;20.76;72.36
20037;BME280;10179;42.640;23.312;2023-08-06T04:47:12;92525.16;;;22.41;72.24
20037;BME280;10179;42.640;23.312;2023-08-06T04:49:38;92517.59;;;22.43;72.34
20037;BME280;10179;42.640;23.312;2023-08-06T04:52:03;92441.69;;;21.97;72.68
20037;BME280;10179;42.640;23.312;2023-08-06T04:54:29;92388.50;;;21.62;72.93
20037;BME280;10179;42.640;23.312;2023-08-06T04:56:54;92503.34;;;22.51;72.85
20037;BME280;10179;42.640;23.312;2023-08-06T04:59:19;92503.47;;;22.55;72.81
20037;BME280;10179;42.640;23.312;2023-08-06T05:01:45;92514.31;;;22.58;72.37
20037;BME280;10179;42.640;23.312;2023-08-06T05:04:11;92508.19;;;22.58;72.56
20037;BME280;10179;42.640;23.312;2023-08-06T05:06:37;92407.53;;;22.03;72.59
20037;BME280;10179;42.640;23.312;2023-08-06T05:09:06;92490.69;;;22.60;73.09
20037;BME280;10179;42.640;23.312;2023-08-06T05:11:32;92511.94;;;22.78;72.70
20037;BME280;10179;42.640;23.312;2023-08-06T05:13:57;92495.63;;;22.71;71.97
20037;BME280;10179;42.640;23.312;2023-08-06T05:16:23;92510.63;;;22.84;71.54
20037;BME280;10179;42.640;23.312;2023-08-06T05:18:48;92482.78;;;22.64;70.73
20037;BME280;10179;42.640;23.312;2023-08-06T05:21:14;92512.22;;;22.85;71.58
20037;BME280;10179;42.640;23.312;2023-08-06T05:23:39;92523.22;;;22.92;71.28
20037;BME280;10179;42.640;23.312;2023-08-06T05:26:04;92516.50;;;22.98;71.15
20037;BME280;10179;42.640;23.312;2023-08-06T05:28:30;92506.69;;;23.02;71.41
20037;BME280;10179;42.640;23.312;2023-08-06T05:30:55;92422.00;;;22.65;71.65
20037;BME280;10179;42.640;23.312;2023-08-06T05:33:21;92499.31;;;23.32;71.33
20037;BME280;10179;42.640;23.312;2023-08-06T05:35:46;92497.31;;;23.42;71.17
20037;BME280;10179;42.640;23.312;2023-08-06T05:38:11;92421.91;;;23.06;71.30
20037;BME280;10179;42.640;23.312;2023-08-06T05:40:37;92498.94;;;23.67;71.04
20037;BME280;10179;42.640;23.312;2023-08-06T05:43:02;92481.41;;;23.70;70.98
20037;BME280;10179;42.640;23.312;2023-08-06T05:45:27;92489.66;;;23.89;70.43
20037;BME280;10179;42.640;23.312;2023-08-06T05:47:53;92473.56;;;23.89;70.07
20037;BME280;10179;42.640;23.312;2023-08-06T05:50:20;92495.31;;;24.24;70.24
20037;BME280;10179;42.640;23.312;2023-08-06T05:52:45;92501.22;;;24.55;70.39
20037;BME280;10179;42.640;23.312;2023-08-06T05:55:11;92490.63;;;24.74;69.62
20037;BME280;10179;42.640;23.312;2023-08-06T05:57:36;92507.97;;;25.17;68.12
20037;BME280;10179;42.640;23.312;2023-08-06T06:00:02;92532.94;;;25.33;67.13
20037;BME280;10179;42.640;23.312;2023-08-06T06:02:28;92523.53;;;25.55;66.30
20037;BME280;10179;42.640;23.312;2023-08-06T06:04:53;92503.69;;;25.60;64.74
20037;BME280;10179;42.640;23.312;2023-08-06T06:07:19;92518.25;;;25.75;62.93
20037;BME280;10179;42.640;23.312;2023-08-06T06:09:44;92527.47;;;25.89;61.98
20037;BME280;10179;42.640;23.312;2023-08-06T06:12:10;92528.50;;;26.01;60.46
20037;BME280;10179;42.640;23.312;2023-08-06T06:14:35;92493.47;;;25.81;59.00
20037;BME280;10179;42.640;23.312;2023-08-06T06:17:00;92531.28;;;26.20;58.87
20037;BME280;10179;42.640;23.312;2023-08-06T06:19:26;92410.84;;;25.50;59.26
20037;BME280;10179;42.640;23.312;2023-08-06T06:21:51;92533.50;;;26.34;57.71
20037;BME280;10179;42.640;23.312;2023-08-06T06:24:18;92535.84;;;26.51;57.38
20037;BME280;10179;42.640;23.312;2023-08-06T06:26:43;92545.31;;;26.61;55.89
20037;BME280;10179;42.640;23.312;2023-08-06T06:29:09;92536.78;;;26.59;55.23
20037;BME280;10179;42.640;23.312;2023-08-06T06:31:34;92564.63;;;26.82;54.58
20037;BME280;10179;42.640;23.312;2023-08-06T06:34:00;92552.69;;;26.83;53.67
20037;BME280;10179;42.640;23.312;2023-08-06T06:36:26;92554.25;;;26.84;54.95
20037;BME280;10179;42.640;23.312;2023-08-06T06:38:51;92557.09;;;26.92;53.92
20037;BME280;10179;42.640;23.312;2023-08-06T06:41:16;92537.81;;;26.89;52.28
20037;BME280;10179;42.640;23.312;2023-08-06T06:43:42;92445.28;;;26.27;53.42
20037;BME280;10179;42.640;23.312;2023-08-06T06:46:07;92569.03;;;27.10;53.01
20037;BME280;10179;42.640;23.312;2023-08-06T06:48:33;92571.72;;;27.10;51.92
20037;BME280;10179;42.640;23.312;2023-08-06T06:50:59;92582.38;;;27.03;51.08
20037;BME280;10179;42.640;23.312;2023-08-06T06:53:24;92582.91;;;26.93;50.16
20037;BME280;10179;42.640;23.312;2023-08-06T06:56:02;92550.09;;;26.52;49.21
20037;BME280;10179;42.640;23.312;2023-08-06T06:58:27;92604.81;;;26.56;48.97
20037;BME280;10179;42.640;23.312;2023-08-06T07:00:53;92608.53;;;26.35;49.43
20037;BME280;10179;42.640;23.312;2023-08-06T07:03:20;92530.75;;;25.67;50.32
20037;BME280;10179;42.640;23.312;2023-08-06T07:05:45;92600.31;;;26.12;49.66
20037;BME280;10179;42.640;23.312;2023-08-06T07:08:11;92509.91;;;25.48;49.09
20037;BME280;10179;42.640;23.312;2023-08-06T07:10:36;92602.06;;;26.05;48.48
20037;BME280;10179;42.640;23.312;2023-08-06T07:13:02;92640.50;;;26.21;47.82
20037;BME280;10179;42.640;23.312;2023-08-06T07:15:27;92637.41;;;26.19;47.39
20037;BME280;10179;42.640;23.312;2023-08-06T07:17:52;92638.94;;;26.20;47.02
20037;BME280;10179;42.640;23.312;2023-08-06T07:20:18;92639.41;;;26.22;46.92
20037;BME280;10179;42.640;23.312;2023-08-06T07:22:44;92620.56;;;26.22;46.51
20037;BME280;10179;42.640;23.312;2023-08-06T07:25:10;92610.66;;;26.26;44.86
20037;BME280;10179;42.640;23.312;2023-08-06T07:27:35;92583.81;;;26.30;43.90
20037;BME280;10179;42.640;23.312;2023-08-06T07:30:01;92643.00;;;26.77;42.94
20037;BME280;10179;42.640;23.312;2023-08-06T07:32:26;92629.69;;;26.84;42.46
20037;BME280;10179;42.640;23.312;2023-08-06T07:34:53;92618.22;;;26.87;41.94
20037;BME280;10179;42.640;23.312;2023-08-06T07:37:22;92632.50;;;27.07;41.62
20037;BME280;10179;42.640;23.312;2023-08-06T07:39:48;92619.88;;;27.27;41.53
20037;BME280;10179;42.640;23.312;2023-08-06T07:42:13;92543.06;;;27.02;41.00
20037;BME280;10179;42.640;23.312;2023-08-06T07:44:39;92631.91;;;27.92;40.30
20037;BME280;10179;42.640;23.312;2023-08-06T07:47:05;92494.38;;;27.33;40.22
20037;BME280;10179;42.640;23.312;2023-08-06T07:49:30;92627.72;;;28.63;39.77
20037;BME280;10179;42.640;23.312;2023-08-06T07:51:55;92632.09;;;28.98;38.96
20037;BME280;10179;42.640;23.312;2023-08-06T07:54:21;92626.72;;;29.28;38.41
20037;BME280;10179;42.640;23.312;2023-08-06T07:56:47;92538.66;;;29.00;36.93
20037;BME280;10179;42.640;23.312;2023-08-06T07:59:12;92600.22;;;29.75;36.18
20037;BME280;10179;42.640;23.312;2023-08-06T08:01:38;92625.72;;;30.11;35.61
20037;BME280;10179;42.640;23.312;2023-08-06T08:04:03;92630.66;;;30.39;35.22
20037;BME280;10179;42.640;23.312;2023-08-06T08:06:29;92368.22;;;28.93;34.69
20037;BME280;10179;42.640;23.312;2023-08-06T08:08:55;92623.03;;;31.03;34.11
20037;BME280;10179;42.640;23.312;2023-08-06T08:11:20;92625.09;;;31.28;33.24
20037;BME280;10179;42.640;23.312;2023-08-06T08:13:46;92507.03;;;30.75;33.00
20037;BME280;10179;42.640;23.312;2023-08-06T08:16:11;92631.53;;;31.78;33.11
20037;BME280;10179;42.640;23.312;2023-08-06T08:18:36;92613.78;;;31.99;32.53
20037;BME280;10179;42.640;23.312;2023-08-06T08:21:02;92616.13;;;32.22;32.35
20037;BME280;10179;42.640;23.312;2023-08-06T08:23:27;92612.63;;;32.32;31.81
20037;BME280;10179;42.640;23.312;2023-08-06T08:25:53;92630.16;;;32.56;31.72
20037;BME280;10179;42.640;23.312;2023-08-06T08:28:19;92610.75;;;32.50;31.42
20037;BME280;10179;42.640;23.312;2023-08-06T08:30:44;92632.50;;;32.79;31.06
20037;BME280;10179;42.640;23.312;2023-08-06T08:33:09;92632.50;;;32.97;31.12
20037;BME280;10179;42.640;23.312;2023-08-06T08:35:36;92609.16;;;32.74;31.08
20037;BME280;10179;42.640;23.312;2023-08-06T08:38:01;92623.94;;;32.73;31.06
20037;BME280;10179;42.640;23.312;2023-08-06T08:40:31;92627.84;;;32.76;30.82
20037;BME280;10179;42.640;23.312;2023-08-06T08:43:01;92544.31;;;32.16;31.19
20037;BME280;10179;42.640;23.312;2023-08-06T08:45:29;92650.75;;;32.68;30.18
20037;BME280;10179;42.640;23.312;2023-08-06T08:47:54;92589.34;;;32.20;30.36
20037;BME280;10179;42.640;23.312;2023-08-06T08:50:21;92627.81;;;32.37;30.72
20037;BME280;10179;42.640;23.312;2023-08-06T08:52:47;92614.59;;;32.28;31.38
20037;BME280;10179;42.640;23.312;2023-08-06T08:55:15;92608.38;;;32.17;30.46
20037;BME280;10179;42.640;23.312;2023-08-06T08:57:40;92611.09;;;32.17;30.92
20037;BME280;10179;42.640;23.312;2023-08-06T09:00:06;92606.03;;;32.19;31.33
20037;BME280;10179;42.640;23.312;2023-08-06T09:02:32;92609.91;;;32.07;31.49
20037;BME280;10179;42.640;23.312;2023-08-06T09:05:00;92578.75;;;31.83;31.39
20037;BME280;10179;42.640;23.312;2023-08-06T09:07:29;92594.34;;;32.00;30.90
20037;BME280;10179;42.640;23.312;2023-08-06T09:09:57;92603.28;;;32.08;31.34
20037;BME280;10179;42.640;23.312;2023-08-06T09:12:24;92605.25;;;32.15;31.25
20037;BME280;10179;42.640;23.312;2023-08-06T09:14:51;92594.38;;;32.07;31.12
20037;BME280;10179;42.640;23.312;2023-08-06T09:17:17;92585.06;;;32.05;30.76
20037;BME280;10179;42.640;23.312;2023-08-06T09:19:45;92601.38;;;32.08;30.96
20037;BME280;10179;42.640;23.312;2023-08-06T09:22:13;92553.94;;;31.84;31.54
20037;BME280;10179;42.640;23.312;2023-08-06T09:24:42;92589.72;;;32.19;31.01
20037;BME280;10179;42.640;23.312;2023-08-06T09:27:11;92602.94;;;32.24;31.32
20037;BME280;10179;42.640;23.312;2023-08-06T09:29:45;92502.66;;;31.47;31.07
20037;BME280;10179;42.640;23.312;2023-08-06T09:32:12;92580.41;;;32.02;31.46
20037;BME280;10179;42.640;23.312;2023-08-06T09:34:42;92587.38;;;32.06;31.69
20037;BME280;10179;42.640;23.312;2023-08-06T09:37:11;92580.41;;;32.02;31.40
20037;BME280;10179;42.640;23.312;2023-08-06T09:39:39;92501.13;;;31.53;30.86
20037;BME280;10179;42.640;23.312;2023-08-06T09:42:05;92576.09;;;31.97;31.09
20037;BME280;10179;42.640;23.312;2023-08-06T09:44:32;92574.91;;;31.84;30.85
20037;BME280;10179;42.640;23.312;2023-08-06T09:46:58;92572.53;;;31.68;31.24
20037;BME280;10179;42.640;23.312;2023-08-06T09:49:29;92484.22;;;30.87;30.93
20037;BME280;10179;42.640;23.312;2023-08-06T09:52:10;92586.69;;;31.22;31.91
20037;BME280;10179;42.640;23.312;2023-08-06T09:54:37;92516.88;;;30.46;32.15
20037;BME280;10179;42.640;23.312;2023-08-06T09:57:02;92505.91;;;30.25;32.88
20037;BME280;10179;42.640;23.312;2023-08-06T09:59:28;92551.69;;;30.37;32.72
20037;BME280;10179;42.640;23.312;2023-08-06T10:01:54;92573.31;;;30.30;32.86
20037;BME280;10179;42.640;23.312;2023-08-06T10:04:20;92564.63;;;30.13;33.26
20037;BME280;10179;42.640;23.312;2023-08-06T10:06:47;92566.41;;;29.95;33.89
20037;BME280;10179;42.640;23.312;2023-08-06T10:09:15;92590.34;;;29.93;33.45
20037;BME280;10179;42.640;23.312;2023-08-06T10:11:42;92493.22;;;29.13;33.46
20037;BME280;10179;42.640;23.312;2023-08-06T10:14:15;92593.25;;;29.74;34.25
20037;BME280;10179;42.640;23.312;2023-08-06T10:16:42;92593.31;;;29.47;34.47
20037;BME280;10179;42.640;23.312;2023-08-06T10:19:10;92588.09;;;29.61;34.74
20037;BME280;10179;42.640;23.312;2023-08-06T10:21:38;92594.22;;;29.58;35.39
20037;BME280;10179;42.640;23.312;2023-08-06T10:24:06;92569.31;;;29.42;35.04
20037;BME280;10179;42.640;23.312;2023-08-06T10:26:34;92595.06;;;29.62;34.93
20037;BME280;10179;42.640;23.312;2023-08-06T10:29:00;92401.06;;;28.31;34.84
20037;BME280;10179;42.640;23.312;2023-08-06T10:31:53;92596.63;;;29.63;34.29
20037;BME280;10179;42.640;23.312;2023-08-06T10:34:19;92603.06;;;29.55;34.98
20037;BME280;10179;42.640;23.312;2023-08-06T10:36:44;92465.56;;;28.63;34.81
20037;BME280;10179;42.640;23.312;2023-08-06T10:39:13;92606.53;;;29.52;34.29
20037;BME280;10179;42.640;23.312;2023-08-06T10:41:42;92610.31;;;29.47;34.53
20037;BME280;10179;42.640;23.312;2023-08-06T10:44:09;92494.16;;;28.64;34.78
20037;BME280;10179;42.640;23.312;2023-08-06T10:46:35;92613.41;;;29.46;34.89
20037;BME280;10179;42.640;23.312;2023-08-06T10:49:02;92623.03;;;29.43;35.63
20037;BME280;10179;42.640;23.312;2023-08-06T10:51:27;92623.34;;;29.35;34.81
20037;BME280;10179;42.640;23.312;2023-08-06T10:53:53;92622.03;;;29.25;35.63
20037;BME280;10179;42.640;23.312;2023-08-06T10:56:20;92621.56;;;29.19;35.66
20037;BME280;10179;42.640;23.312;2023-08-06T10:58:48;92620.31;;;29.13;35.46
20037;BME280;10179;42.640;23.312;2023-08-06T11:01:14;92627.63;;;29.09;35.65
20037;BME280;10179;42.640;23.312;2023-08-06T11:03:45;92626.81;;;29.05;36.14
20037;BME280;10179;42.640;23.312;2023-08-06T11:06:11;92620.50;;;28.97;36.37
20037;BME280;10179;42.640;23.312;2023-08-06T11:08:47;92634.06;;;29.28;36.40
20037;BME280;10179;42.640;23.312;2023-08-06T11:11:14;92638.56;;;29.77;35.67
20037;BME280;10179;42.640;23.312;2023-08-06T11:13:45;92625.09;;;30.25;35.22
20037;BME280;10179;42.640;23.312;2023-08-06T11:16:22;92625.25;;;30.90;33.92
20037;BME280;10179;42.640;23.312;2023-08-06T11:18:49;92608.13;;;31.38;33.35
20037;BME280;10179;42.640;23.312;2023-08-06T11:21:19;92633.19;;;32.19;31.65
20037;BME280;10179;42.640;23.312;2023-08-06T11:23:44;92581.53;;;31.97;31.45
20037;BME280;10179;42.640;23.312;2023-08-06T11:26:10;92656.56;;;32.41;30.05
20037;BME280;10179;42.640;23.312;2023-08-06T11:28:35;92651.09;;;32.34;29.77
20037;BME280;10179;42.640;23.312;2023-08-06T11:31:01;92648.56;;;31.65;30.91
20037;BME280;10179;42.640;23.312;2023-08-06T11:33:28;92659.78;;;30.94;32.06
20037;BME280;10179;42.640;23.312;2023-08-06T11:35:58;92660.06;;;30.37;32.32
20037;BME280;10179;42.640;23.312;2023-08-06T11:38:25;92668.81;;;29.86;34.41
20037;BME280;10179;42.640;23.312;2023-08-06T11:40:51;92661.56;;;29.03;38.38
20037;BME280;10179;42.640;23.312;2023-08-06T11:43:19;92651.53;;;28.35;40.25
20037;BME280;10179;42.640;23.312;2023-08-06T11:45:45;92645.75;;;27.90;42.05
20037;BME280;10179;42.640;23.312;2023-08-06T11:48:11;92604.25;;;27.36;42.79
20037;BME280;10179;42.640;23.312;2023-08-06T11:50:37;92639.66;;;27.54;44.57
20037;BME280;10179;42.640;23.312;2023-08-06T11:53:06;92621.56;;;27.35;45.33
20037;BME280;10179;42.640;23.312;2023-08-06T11:55:32;92644.06;;;27.43;45.51
20037;BME280;10179;42.640;23.312;2023-08-06T11:57:58;92616.88;;;27.32;46.16
20037;BME280;10179;42.640;23.312;2023-08-06T12:00:24;92630.94;;;27.42;45.34
20037;BME280;10179;42.640;23.312;2023-08-06T12:02:50;92583.91;;;27.04;44.80
20037;BME280;10179;42.640;23.312;2023-08-06T12:05:21;92482.59;;;26.45;43.44
20037;BME280;10179;42.640;23.312;2023-08-06T12:07:51;92636.41;;;27.45;41.44
20037;BME280;10179;42.640;23.312;2023-08-06T12:10:18;92601.25;;;27.22;42.02
20037;BME280;10179;42.640;23.312;2023-08-06T12:12:45;92609.38;;;27.42;40.00
20037;BME280;10179;42.640;23.312;2023-08-06T12:15:10;92591.13;;;27.35;39.13
20037;BME280;10179;42.640;23.312;2023-08-06T12:17:37;92618.78;;;27.51;40.04
20037;BME280;10179;42.640;23.312;2023-08-06T12:20:03;92615.03;;;27.56;40.97
20037;BME280;10179;42.640;23.312;2023-08-06T12:22:33;92521.56;;;27.05;40.83
20037;BME280;10179;42.640;23.312;2023-08-06T12:25:12;92633.19;;;27.78;40.38
20037;BME280;10179;42.640;23.312;2023-08-06T12:27:40;92621.69;;;27.81;39.76
20037;BME280;10179;42.640;23.312;2023-08-06T12:30:07;92556.91;;;27.39;39.93
20037;BME280;10179;42.640;23.312;2023-08-06T12:32:33;92627.72;;;27.94;40.33
20037;BME280;10179;42.640;23.312;2023-08-06T12:34:59;92636.00;;;28.05;39.85
20037;BME280;10179;42.640;23.312;2023-08-06T12:37:26;92635.28;;;28.08;39.41
20037;BME280;10179;42.640;23.312;2023-08-06T12:39:51;92622.44;;;28.01;39.20
20037;BME280;10179;42.640;23.312;2023-08-06T12:42:17;92631.63;;;28.20;39.89
20037;BME280;10179;42.640;23.312;2023-08-06T12:44:42;92627.84;;;28.24;39.45
20037;BME280;10179;42.640;23.312;2023-08-06T12:47:08;92599.03;;;28.09;39.11
20037;BME280;10179;42.640;23.312;2023-08-06T12:49:34;92622.44;;;28.24;39.04
20037;BME280;10179;42.640;23.312;2023-08-06T12:51:59;92596.88;;;28.18;39.00